Time;durP1;ratioP1;P1;durP2;ratioP2;P2;SDS_P1;SDS_P2;PMS_P1;PMS_P2;Temp;Humidity;BMP_temperature;BMP_pressure;BME280_temperature;BME280_humidity;BME280_pressure;Samples;Min_cycle;Max_cycle;Signal;HPM_P1;HPM_P2
2022/03/03 00:01:52;;;;;;;48.15;30.13;;;77.30;2227.20;;;;;;5068499;28;20032;-58
2022/03/03 00:04:19;;;;;;;58.60;29.70;;;77.40;2227.20;;;;;;5065561;28;20027;-59
2022/03/03 00:06:45;;;;;;;52.25;31.08;;;77.30;2227.20;;;;;;5067973;28;20020;-60
2022/03/03 00:09:11;;;;;;;69.72;36.95;;;77.30;2227.20;;;;;;5068427;28;20017;-58
2022/03/03 00:11:38;;;;;;;61.45;36.63;;;77.20;2227.20;;;;;;5068036;28;20441;-63
2022/03/03 00:14:04;;;;;;;42.78;24.02;;;77.30;2227.20;;;;;;5068318;28;20371;-58
2022/03/03 00:16:30;;;;;;;46.15;23.60;;;77.30;2227.20;;;;;;5068233;28;20487;-62
2022/03/03 00:18:56;;;;;;;35.80;20.73;;;77.30;2227.20;;;;;;5068127;28;20035;-58
2022/03/03 00:21:21;;;;;;;38.38;20.75;;;77.40;2227.20;;;;;;5068265;28;20474;-57
2022/03/03 00:23:47;;;;;;;34.00;18.80;;;77.50;2227.20;;;;;;5068707;28;20024;-58
2022/03/03 00:26:13;;;;;;;33.65;20.17;;;77.40;2227.20;;;;;;5071678;28;20028;-63
2022/03/03 00:28:39;;;;;;;52.20;27.33;;;77.40;2227.20;;;;;;5069055;28;20029;-62
2022/03/03 00:31:05;;;;;;;29.17;18.80;;;77.30;2227.20;;;;;;5071607;28;20021;-61
2022/03/03 00:33:31;;;;;;;56.72;30.85;;;77.40;2227.20;;;;;;5071701;28;20028;-58
2022/03/03 00:35:57;;;;;;;62.67;36.05;;;77.50;2227.20;;;;;;5071159;28;20012;-58
2022/03/03 00:38:22;;;;;;;37.13;23.20;;;77.50;2227.20;;;;;;5071633;28;20040;-58
2022/03/03 00:40:48;;;;;;;43.72;29.83;;;77.60;2227.20;;;;;;5071589;28;20096;-57
2022/03/03 00:43:14;;;;;;;67.65;38.42;;;77.50;2227.20;;;;;;5071497;28;20550;-60
2022/03/03 00:45:40;;;;;;;73.93;42.67;;;77.30;2227.20;;;;;;5071929;28;20390;-58
2022/03/03 00:48:06;;;;;;;82.10;45.60;;;77.30;2227.20;;;;;;5071317;28;20028;-60
2022/03/03 00:50:33;;;;;;;70.63;38.00;;;77.40;2227.20;;;;;;5072073;28;20032;-58
2022/03/03 00:52:59;;;;;;;65.28;37.00;;;77.30;2227.20;;;;;;5072449;28;20028;-62
2022/03/03 00:55:24;;;;;;;61.20;36.13;;;77.40;2227.20;;;;;;5071910;28;20055;-61
2022/03/03 00:57:51;;;;;;;51.80;32.63;;;77.30;2227.20;;;;;;5071937;28;20127;-61
2022/03/03 01:00:18;;;;;;;51.45;29.80;;;77.30;2227.20;;;;;;5072293;28;20025;-62
2022/03/03 01:02:45;;;;;;;42.75;25.95;;;77.30;2227.20;;;;;;5071656;28;20960;-62
2022/03/03 01:05:11;;;;;;;45.67;26.00;;;77.20;2227.20;;;;;;5069160;28;20535;-62
2022/03/03 01:07:37;;;;;;;42.38;25.27;;;77.20;2227.20;;;;;;5072069;28;20112;-64
2022/03/03 01:10:04;;;;;;;53.08;29.23;;;77.20;2227.20;;;;;;5072516;28;20021;-65
2022/03/03 01:12:30;;;;;;;53.45;30.27;;;77.20;2227.20;;;;;;5072259;28;20037;-61
2022/03/03 01:14:56;;;;;;;58.75;33.00;;;77.10;2227.20;;;;;;5072137;28;20528;-64
2022/03/03 01:17:22;;;;;;;54.85;33.83;;;77.10;2227.20;;;;;;5072945;28;20036;-60
2022/03/03 01:19:47;;;;;;;35.90;23.05;;;77.10;2227.20;;;;;;5072563;28;20025;-64
2022/03/03 01:22:15;;;;;;;42.50;20.90;;;77.00;2227.20;;;;;;5072786;28;20039;-64
2022/03/03 01:24:41;;;;;;;31.70;19.67;;;76.80;2227.20;;;;;;5072779;28;20466;-64
2022/03/03 01:27:07;;;;;;;31.15;18.48;;;76.90;2227.20;;;;;;5072716;28;20059;-63
2022/03/03 01:29:32;;;;;;;39.83;22.23;;;76.80;2227.20;;;;;;5073423;28;20050;-62
2022/03/03 01:31:58;;;;;;;32.42;19.02;;;52.00;2227.20;;;;;;5072791;28;20455;-66
2022/03/03 01:34:24;;;;;;;41.25;24.77;;;76.80;2227.20;;;;;;5072976;28;20455;-59
2022/03/03 01:36:50;;;;;;;42.58;23.50;;;76.80;2227.20;;;;;;5072804;28;20032;-63
2022/03/03 01:39:16;;;;;;;61.22;33.00;;;52.10;2227.20;;;;;;5072567;28;20036;-65
2022/03/03 01:41:41;;;;;;;45.15;26.95;;;52.10;2227.20;;;;;;5073059;28;20398;-59
2022/03/03 01:44:09;;;;;;;68.30;43.08;;;52.10;2227.20;;;;;;5072955;28;20481;-63
2022/03/03 01:46:34;;;;;;;46.45;29.17;;;52.10;2227.20;;;;;;5071441;28;20052;-59
2022/03/03 01:49:00;;;;;;;35.15;23.38;;;52.10;2227.20;;;;;;5071546;28;20466;-58
2022/03/03 01:51:26;;;;;;;34.83;22.33;;;52.10;2227.20;;;;;;5071328;28;20036;-59
2022/03/03 01:53:52;;;;;;;56.45;30.95;;;52.10;2227.20;;;;;;5071515;28;20028;-59
2022/03/03 01:56:18;;;;;;;50.80;27.35;;;52.00;2227.20;;;;;;5071663;28;20040;-63
2022/03/03 01:58:45;;;;;;;32.72;19.73;;;52.00;2227.20;;;;;;5071298;28;20060;-58
2022/03/03 02:01:12;;;;;;;39.45;22.75;;;52.00;2227.20;;;;;;5071358;28;20033;-61
2022/03/03 02:03:38;;;;;;;27.92;17.60;;;52.00;2227.20;;;;;;5071126;28;20067;-61
2022/03/03 02:06:04;;;;;;;29.00;17.88;;;51.90;2227.20;;;;;;5070927;28;20048;-59
2022/03/03 02:08:30;;;;;;;30.02;18.13;;;52.00;2227.20;;;;;;5071076;28;20036;-60
2022/03/03 02:10:56;;;;;;;30.08;18.35;;;52.00;2227.20;;;;;;5070867;28;20078;-58
2022/03/03 02:13:21;;;;;;;41.42;27.90;;;51.80;2227.20;;;;;;5071050;28;20029;-58
2022/03/03 02:15:55;;;;;;;29.85;16.73;;;51.80;2227.20;;;;;;5070915;28;20048;-61
2022/03/03 02:18:21;;;;;;;35.13;19.10;;;51.70;2227.20;;;;;;5070933;28;20036;-58
2022/03/03 02:20:48;;;;;;;27.77;17.60;;;51.70;2227.20;;;;;;5070674;28;20029;-60
2022/03/03 02:23:14;;;;;;;29.00;17.02;;;51.60;2227.20;;;;;;5070828;28;20028;-60
2022/03/03 02:25:40;;;;;;;30.00;16.33;;;51.60;2227.20;;;;;;5070726;28;20037;-58
2022/03/03 02:28:06;;;;;;;26.20;15.52;;;51.80;2227.20;;;;;;5070503;28;20041;-61
2022/03/03 02:30:32;;;;;;;27.52;17.65;;;51.90;2227.20;;;;;;5070736;28;20398;-61
2022/03/03 02:32:58;;;;;;;31.08;18.35;;;52.10;2227.20;;;;;;5070606;28;20067;-61
2022/03/03 02:35:24;;;;;;;26.77;16.23;;;52.10;2227.20;;;;;;5070470;28;20032;-59
2022/03/03 02:37:50;;;;;;;33.63;18.88;;;76.80;2227.20;;;;;;5070466;28;20111;-60
2022/03/03 02:40:21;;;;;;;28.15;17.70;;;76.80;2227.20;;;;;;5070323;28;20059;-62
2022/03/03 02:42:54;;;;;;;27.95;19.35;;;52.10;2227.20;;;;;;5070605;28;20033;-58
2022/03/03 02:45:21;;;;;;;23.92;15.93;;;76.80;2227.20;;;;;;5070352;28;20032;-59
2022/03/03 02:47:49;;;;;;;29.98;18.67;;;76.90;2227.20;;;;;;5069951;28;20099;-58
2022/03/03 02:50:17;;;;;;;38.28;20.95;;;52.00;2227.20;;;;;;5070325;28;20020;-59
2022/03/03 02:52:43;;;;;;;32.55;19.30;;;51.70;2227.20;;;;;;5070233;28;20024;-61
2022/03/03 02:55:09;;;;;;;34.17;19.20;;;51.70;2227.20;;;;;;5070208;28;20024;-59
2022/03/03 02:57:54;;;;;;;32.78;20.88;;;51.60;2227.20;;;;;;5070020;28;20090;-58
2022/03/03 03:00:39;;;;;;;31.88;20.75;;;51.50;2227.20;;;;;;5070364;28;20119;-59
2022/03/03 03:03:05;;;;;;;34.53;21.40;;;51.60;2227.20;;;;;;5070177;28;20032;-58
2022/03/03 03:05:30;;;;;;;38.38;22.45;;;51.50;2227.20;;;;;;5070187;28;20052;-58
2022/03/03 03:07:56;;;;;;;34.22;20.40;;;51.60;2227.20;;;;;;5070036;28;20055;-60
2022/03/03 03:10:23;;;;;;;36.40;22.50;;;51.70;2227.20;;;;;;5070170;28;20111;-59
2022/03/03 03:12:48;;;;;;;29.67;17.30;;;51.70;2227.20;;;;;;5070035;28;20028;-59
2022/03/03 03:15:15;;;;;;;37.38;18.02;;;51.80;2227.20;;;;;;5069982;28;20145;-60
2022/03/03 03:17:40;;;;;;;29.83;18.08;;;52.10;2227.20;;;;;;5070194;28;20482;-58
2022/03/03 03:20:07;;;;;;;26.50;17.80;;;76.80;2227.20;;;;;;5069763;28;20051;-60
2022/03/03 03:22:34;;;;;;;32.67;20.05;;;77.00;2227.20;;;;;;5069865;28;20055;-61
2022/03/03 03:25:00;;;;;;;32.25;18.58;;;77.10;2227.20;;;;;;5070235;28;20016;-59
2022/03/03 03:27:26;;;;;;;34.75;18.17;;;77.10;2227.20;;;;;;5069578;28;20439;-61
2022/03/03 03:29:51;;;;;;;29.88;17.77;;;77.20;2227.20;;;;;;5070003;28;20028;-61
2022/03/03 03:32:17;;;;;;;31.83;19.02;;;77.30;2227.20;;;;;;5069753;28;20498;-61
2022/03/03 03:34:43;;;;;;;31.65;18.20;;;77.20;2227.20;;;;;;5069837;28;20028;-59
2022/03/03 03:37:09;;;;;;;24.88;17.25;;;77.20;2227.20;;;;;;5069773;28;20043;-62
2022/03/03 03:39:35;;;;;;;28.13;18.52;;;77.30;2227.20;;;;;;5069956;28;20027;-60
2022/03/03 03:42:00;;;;;;;25.85;16.40;;;77.40;2227.20;;;;;;5069984;28;20052;-61
2022/03/03 03:44:26;;;;;;;25.25;16.13;;;77.30;2227.20;;;;;;5069735;28;20470;-61
2022/03/03 03:46:52;;;;;;;27.77;17.77;;;77.40;2227.20;;;;;;5069864;28;20518;-61
2022/03/03 03:49:18;;;;;;;27.15;17.85;;;77.50;2227.20;;;;;;5069623;28;20025;-61
2022/03/03 03:51:43;;;;;;;33.55;18.15;;;77.40;2227.20;;;;;;5069785;28;20562;-61
2022/03/03 03:54:09;;;;;;;35.83;18.75;;;77.50;2227.20;;;;;;5069897;28;20374;-61
2022/03/03 03:56:35;;;;;;;29.02;17.90;;;77.50;2227.20;;;;;;5069280;28;20040;-61
2022/03/03 03:59:01;;;;;;;30.83;17.88;;;77.50;2227.20;;;;;;5070760;28;20084;-60
2022/03/03 04:01:27;;;;;;;38.03;21.52;;;77.50;2227.20;;;;;;5073594;28;20052;-61
2022/03/03 04:03:53;;;;;;;36.17;23.45;;;77.50;2227.20;;;;;;5073411;28;20021;-62
2022/03/03 04:06:19;;;;;;;40.15;23.58;;;77.60;2227.20;;;;;;5072988;28;20507;-60
2022/03/03 04:08:45;;;;;;;37.13;21.52;;;77.50;2227.20;;;;;;5073092;28;20033;-61
2022/03/03 04:11:10;;;;;;;32.45;17.98;;;77.60;2227.20;;;;;;5073631;28;20108;-60
2022/03/03 04:13:37;;;;;;;30.73;21.50;;;77.60;2227.20;;;;;;5073146;28;20035;-61
2022/03/03 04:16:03;;;;;;;28.05;19.48;;;77.60;2227.20;;;;;;5073167;28;20029;-61
2022/03/03 04:18:29;;;;;;;32.67;18.63;;;77.60;2227.20;;;;;;5073086;28;20047;-61
2022/03/03 04:20:54;;;;;;;26.00;16.60;;;77.50;2227.20;;;;;;5073129;28;20020;-59
2022/03/03 04:23:20;;;;;;;29.65;18.45;;;77.60;2227.20;;;;;;5073169;28;20389;-59
2022/03/03 04:25:46;;;;;;;28.05;18.83;;;77.60;2227.20;;;;;;5072739;28;20037;-58
2022/03/03 04:28:11;;;;;;;31.92;20.27;;;77.60;2227.20;;;;;;5071842;28;20048;-61
2022/03/03 04:30:37;;;;;;;31.73;24.52;;;77.50;2227.20;;;;;;5073131;28;20426;-61
2022/03/03 04:33:03;;;;;;;31.52;21.45;;;77.60;2227.20;;;;;;5073213;28;20055;-61
2022/03/03 04:35:29;;;;;;;48.13;26.95;;;77.70;2227.20;;;;;;5072764;28;20040;-61
2022/03/03 04:37:55;;;;;;;43.33;24.27;;;77.70;2227.20;;;;;;5072567;28;20043;-59
2022/03/03 04:40:21;;;;;;;48.17;26.60;;;77.70;2227.20;;;;;;5073080;28;20028;-60
2022/03/03 04:42:47;;;;;;;32.50;23.65;;;77.60;2227.20;;;;;;5072581;28;20033;-61
2022/03/03 04:45:12;;;;;;;31.52;20.98;;;77.70;2227.20;;;;;;5072727;28;20103;-61
2022/03/03 04:47:38;;;;;;;29.95;20.77;;;77.70;2227.20;;;;;;5072614;28;20119;-61
2022/03/03 04:50:05;;;;;;;37.58;27.33;;;77.70;2227.20;;;;;;5072544;28;20078;-60
2022/03/03 04:52:31;;;;;;;37.13;24.50;;;77.70;2227.20;;;;;;5072608;28;20125;-62
2022/03/03 04:54:57;;;;;;;37.30;23.60;;;102.40;2227.20;;;;;;5072510;28;20481;-61
2022/03/03 04:57:23;;;;;;;39.28;22.45;;;102.40;2227.20;;;;;;5072214;28;20051;-59
2022/03/03 04:59:48;;;;;;;34.85;21.95;;;102.40;2227.20;;;;;;5072463;28;20099;-61
2022/03/03 05:02:14;;;;;;;26.05;16.10;;;102.40;2227.20;;;;;;5072432;28;20475;-60
2022/03/03 05:04:40;;;;;;;32.00;23.02;;;102.40;2227.20;;;;;;5072502;28;20435;-58
2022/03/03 05:07:06;;;;;;;35.92;22.20;;;102.50;2227.20;;;;;;5071932;28;20123;-60
2022/03/03 05:09:32;;;;;;;28.70;18.45;;;102.40;2227.20;;;;;;5071904;28;20111;-58
2022/03/03 05:11:59;;;;;;;24.85;16.60;;;102.50;2227.20;;;;;;5072141;28;20032;-58
2022/03/03 05:14:25;;;;;;;26.08;15.13;;;102.50;2227.20;;;;;;5072040;28;20530;-58
2022/03/03 05:16:51;;;;;;;34.72;21.23;;;102.50;2227.20;;;;;;5072080;28;20123;-58
2022/03/03 05:19:16;;;;;;;27.27;18.13;;;102.50;2227.20;;;;;;5072011;28;20108;-61
2022/03/03 05:21:42;;;;;;;28.63;18.15;;;102.60;2227.20;;;;;;5071888;28;20115;-59
2022/03/03 05:24:08;;;;;;;27.48;17.50;;;102.70;2227.20;;;;;;5071798;28;20059;-57
2022/03/03 05:26:34;;;;;;;28.08;17.27;;;102.80;2227.20;;;;;;5071841;28;20548;-58
2022/03/03 05:29:00;;;;;;;27.33;17.65;;;102.70;2227.20;;;;;;5071905;28;20079;-58
2022/03/03 05:31:26;;;;;;;24.83;15.90;;;102.80;2227.20;;;;;;5071927;28;20021;-59
2022/03/03 05:33:52;;;;;;;31.50;18.67;;;102.70;2227.20;;;;;;5072024;28;20128;-59
2022/03/03 05:36:18;;;;;;;32.92;19.85;;;102.70;2227.20;;;;;;5071462;28;20407;-62
2022/03/03 05:38:44;;;;;;;28.08;16.63;;;102.70;2227.20;;;;;;5071461;28;20038;-59
2022/03/03 05:41:10;;;;;;;26.23;16.55;;;102.80;2201.60;;;;;;5071749;28;20028;-66
2022/03/03 05:43:36;;;;;;;26.90;16.80;;;102.90;2201.60;;;;;;5071922;28;20020;-67
2022/03/03 05:46:03;;;;;;;23.20;14.98;;;103.00;2176.00;;;;;;5072117;28;20025;-61
2022/03/03 05:48:29;;;;;;;25.35;17.30;;;103.10;2150.40;;;;;;5071533;28;20474;-62
2022/03/03 05:50:56;;;;;;;30.40;18.45;;;103.10;2150.40;;;;;;5071420;28;20482;-58
2022/03/03 05:53:23;;;;;;;112.10;58.35;;;103.20;2150.40;;;;;;5071421;28;20110;-59
2022/03/03 05:55:52;;;;;;;40.67;21.80;;;103.30;2099.20;;;;;;5071141;28;20040;-63
2022/03/03 05:58:20;;;;;;;30.55;19.30;;;128.00;2099.20;;;;;;5070975;28;20032;-57
2022/03/03 06:00:49;;;;;;;29.83;18.02;;;128.20;2099.20;;;;;;5071152;28;20019;-62
2022/03/03 06:03:17;;;;;;;33.58;19.38;;;128.30;2073.60;;;;;;5071046;28;20024;-60
2022/03/03 06:06:05;;;;;;;183.10;106.28;;;128.30;2073.60;;;;;;5071216;28;20070;-58
2022/03/03 06:08:41;;;;;;;87.22;52.25;;;128.40;2048.00;;;;;;5070864;28;20027;-58
2022/03/03 06:11:12;;;;;;;36.45;19.30;;;128.60;2048.00;;;;;;5070799;28;20108;-57
2022/03/03 06:13:46;;;;;;;33.10;17.27;;;128.60;1996.80;;;;;;5070903;28;20021;-58
2022/03/03 06:16:19;;;;;;;34.88;17.83;;;128.70;1971.20;;;;;;5070922;28;20070;-58
2022/03/03 06:18:46;;;;;;;30.13;19.48;;;128.80;1971.20;;;;;;5070594;28;20036;-59
2022/03/03 06:21:12;;;;;;;28.58;19.23;;;153.70;1945.60;;;;;;5070377;28;20059;-59
2022/03/03 06:23:38;;;;;;;43.28;25.30;;;153.80;1920.00;;;;;;5070577;28;20048;-57
2022/03/03 06:26:11;;;;;;;131.68;83.20;;;153.90;1894.40;;;;;;5070869;28;20115;-58
2022/03/03 06:28:37;;;;;;;84.65;62.03;;;153.90;1894.40;;;;;;5070584;28;20510;-58
2022/03/03 06:31:05;;;;;;;38.47;26.27;;;154.40;1868.80;;;;;;5070802;28;20060;-58
2022/03/03 06:33:31;;;;;;;35.00;23.20;;;179.80;1766.40;;;;;;5071104;28;20028;-58
2022/03/03 06:35:56;;;;;;;26.60;18.60;;;179.90;1740.80;;;;;;5070328;28;20462;-58
2022/03/03 06:38:22;;;;;;;66.70;37.08;;;205.00;1689.60;;;;;;5070440;28;20039;-61
2022/03/03 06:40:49;;;;;;;80.75;63.42;;;180.00;1740.80;;;;;;5070322;28;20020;-57
2022/03/03 06:43:15;;;;;;;193.77;128.25;;;179.70;1766.40;;;;;;5070490;28;20480;-58
2022/03/03 06:45:41;;;;;;;70.95;44.05;;;179.40;1792.00;;;;;;5070627;28;20024;-57
2022/03/03 06:48:07;;;;;;;187.85;139.13;;;180.00;1766.40;;;;;;5070035;28;20466;-58
2022/03/03 06:50:42;;;;;;;104.57;70.07;;;180.00;1715.20;;;;;;5070462;28;20067;-58
2022/03/03 06:53:08;;;;;;;269.88;174.07;;;180.00;1715.20;;;;;;5070145;28;20025;-61
2022/03/03 06:55:35;;;;;;;243.43;160.38;;;205.60;1638.40;;;;;;5070008;28;20024;-61
2022/03/03 06:58:01;;;;;;;479.30;383.65;;;281.70;1510.40;;;;;;5070200;28;20406;-61
2022/03/03 07:00:30;;;;;;;367.88;288.45;;;;;;;;;;5069848;28;20024;-61
2022/03/03 07:02:57;;;;;;;227.80;192.85;;;;;;;;;;5070174;28;20029;-58
2022/03/03 07:05:23;;;;;;;36.92;31.27;;;358.50;1280.00;;;;;;5070013;28;20051;-58
2022/03/03 07:07:52;;;;;;;28.10;20.77;;;;;;;;;;5069949;28;20478;-58
2022/03/03 07:10:24;;;;;;;39.35;31.88;;;384.00;1203.20;;;;;;5069899;28;20033;-57
2022/03/03 07:12:54;;;;;;;34.40;26.98;;;;;;;;;;5070383;28;20103;-60
2022/03/03 07:15:24;;;;;;;32.67;24.77;;;;;;;;;;5070021;28;20385;-63
2022/03/03 07:17:56;;;;;;;606.95;488.63;;;;;;;;;;5070008;28;20032;-63
2022/03/03 07:20:37;;;;;;;233.10;169.68;;;282.50;1305.60;;;;;;5069873;28;20024;-61
2022/03/03 07:23:07;;;;;;;84.28;64.10;;;256.70;1382.40;;;;;;5070174;28;20033;-63
2022/03/03 07:25:49;;;;;;;25.30;17.90;;;256.60;1356.80;;;;;;5069989;28;20036;-57
2022/03/03 07:28:17;;;;;;;20.42;16.75;;;281.80;1382.40;;;;;;5069676;28;20052;-58
2022/03/03 07:30:44;;;;;;;26.15;20.05;;;358.90;1228.80;;;;;;5070049;28;20052;-58
2022/03/03 07:33:35;;;;;;;22.67;17.33;;;384.80;1177.60;;;;;;5071515;28;20098;-60
2022/03/03 07:36:02;;;;;;;19.70;16.67;;;435.60;1100.80;;;;;;5073979;28;20433;-60
2022/03/03 07:38:36;;;;;;;20.83;18.63;;;461.40;1024.00;;;;;;5073505;28;20040;-59
2022/03/03 07:41:03;;;;;;;18.83;16.60;;;461.50;1049.60;;;;;;5073694;28;20136;-58
2022/03/03 07:43:29;;;;;;;29.13;26.13;;;486.50;1024.00;;;;;;5073864;28;20433;-60
2022/03/03 07:45:54;;;;;;;20.98;17.48;;;486.80;972.80;;;;;;5073666;28;20025;-59
2022/03/03 07:48:23;;;;;;;22.33;16.73;;;486.40;998.40;;;;;;5073730;28;20454;-60
2022/03/03 07:50:49;;;;;;;26.40;18.67;;;460.90;1049.60;;;;;;5073454;28;20037;-60
2022/03/03 07:53:16;;;;;;;31.40;25.23;;;435.40;1075.20;;;;;;5073314;28;20106;-61
2022/03/03 07:55:48;;;;;;;24.23;17.30;;;436.10;1024.00;;;;;;5073466;28;20099;-61
2022/03/03 07:58:18;;;;;;;20.08;16.95;;;512.00;972.80;;;;;;5073573;28;20120;-61
2022/03/03 08:00:48;;;;;;;22.13;19.13;;;537.70;947.20;;;;;;5073497;28;20024;-61
2022/03/03 08:03:19;;;;;;;22.55;19.92;;;563.70;921.60;;;;;;5073526;28;20021;-61
2022/03/03 08:05:48;;;;;;;29.13;25.23;;;512.60;947.20;;;;;;5073113;28;20052;-61
2022/03/03 08:08:18;;;;;;;21.02;16.88;;;461.70;998.40;;;;;;5073405;28;20047;-61
2022/03/03 08:10:45;;;;;;;25.27;19.65;;;461.60;998.40;;;;;;5073191;28;20048;-61
2022/03/03 08:13:16;;;;;;;24.67;16.73;;;461.30;1075.20;;;;;;5073926;28;20052;-58
2022/03/03 08:15:44;;;;;;;19.90;15.90;;;461.70;998.40;;;;;;5073495;28;20109;-60
2022/03/03 08:18:10;;;;;;;34.75;27.48;;;486.40;972.80;;;;;;5073342;28;20386;-60
2022/03/03 08:20:38;;;;;;;20.80;17.98;;;;;;;;;;5072780;28;20467;-61
2022/03/03 08:23:05;;;;;;;27.55;23.98;;;512.40;921.60;;;;;;5072994;28;20391;-62
2022/03/03 08:25:32;;;;;;;24.80;20.02;;;537.80;921.60;;;;;;5073058;28;20043;-57
2022/03/03 08:27:58;;;;;;;25.77;20.38;;;538.30;870.40;;;;;;5072755;28;20076;-57
2022/03/03 08:30:25;;;;;;;23.52;17.92;;;563.70;870.40;;;;;;5072855;28;20023;-59
2022/03/03 08:33:16;;;;;;;26.83;21.30;;;538.50;896.00;;;;;;5073108;28;20037;-59
2022/03/03 08:35:49;;;;;;;31.02;27.63;;;563.40;896.00;;;;;;5072989;28;20045;-59
2022/03/03 08:38:15;;;;;;;24.55;22.10;;;564.10;870.40;;;;;;5072733;28;20024;-59
2022/03/03 08:40:44;;;;;;;34.10;30.58;;;563.90;870.40;;;;;;5072968;28;20032;-59
2022/03/03 08:43:16;;;;;;;25.70;22.40;;;588.80;870.40;;;;;;5073172;28;20107;-61
2022/03/03 08:45:42;;;;;;;37.42;31.00;;;589.20;844.80;;;;;;5072519;28;20382;-59
2022/03/03 08:48:14;;;;;;;25.63;20.67;;;614.80;819.20;;;;;;5072515;28;20044;-59
2022/03/03 08:50:41;;;;;;;29.80;26.63;;;614.90;793.60;;;;;;5072887;28;20086;-60
2022/03/03 08:53:09;;;;;;;27.00;23.05;;;614.80;819.20;;;;;;5072572;28;20035;-59
2022/03/03 08:55:37;;;;;;;19.80;17.80;;;614.40;819.20;;;;;;5072737;28;20482;-60
2022/03/03 08:58:04;;;;;;;20.20;18.02;;;588.80;870.40;;;;;;5072796;28;20032;-59
2022/03/03 09:00:30;;;;;;;25.95;22.98;;;563.60;870.40;;;;;;5072563;28;20095;-60
2022/03/03 09:02:57;;;;;;;30.08;26.23;;;589.00;870.40;;;;;;5072350;28;20445;-60
2022/03/03 09:05:23;;;;;;;29.42;25.77;;;589.40;819.20;;;;;;5072422;28;20367;-61
2022/03/03 09:07:49;;;;;;;23.85;19.30;;;564.10;870.40;;;;;;5072391;28;20040;-58
2022/03/03 09:10:16;;;;;;;19.90;17.48;;;589.50;844.80;;;;;;5072289;28;20082;-60
2022/03/03 09:12:42;;;;;;;24.40;21.92;;;563.60;896.00;;;;;;5072451;28;20158;-61
2022/03/03 09:15:09;;;;;;;30.00;24.10;;;563.60;870.40;;;;;;5072073;28;20025;-59
2022/03/03 09:17:35;;;;;;;27.50;20.98;;;563.50;870.40;;;;;;5072218;28;20028;-60
2022/03/03 09:20:05;;;;;;;21.85;16.83;;;537.90;896.00;;;;;;5072180;28;20028;-60
2022/03/03 09:22:31;;;;;;;17.52;15.38;;;512.40;870.40;;;;;;5072229;28;20177;-61
2022/03/03 09:24:57;;;;;;;18.90;16.63;;;486.80;921.60;;;;;;5071965;28;20048;-58
2022/03/03 09:27:23;;;;;;;19.73;16.27;;;461.30;972.80;;;;;;5071552;28;20084;-59
2022/03/03 09:29:49;;;;;;;18.77;15.25;;;436.00;972.80;;;;;;5071805;28;20020;-59
2022/03/03 09:32:15;;;;;;;20.58;15.50;;;410.20;1024.00;;;;;;5071989;28;20086;-60
2022/03/03 09:34:41;;;;;;;21.40;15.65;;;384.00;1100.80;;;;;;5072090;28;20020;-58
2022/03/03 09:37:07;;;;;;;21.00;16.83;;;358.40;1177.60;;;;;;5071612;28;20032;-60
2022/03/03 09:39:32;;;;;;;40.70;30.42;;;358.50;1152.00;;;;;;5071645;28;20064;-59
2022/03/03 09:41:58;;;;;;;23.05;17.55;;;333.10;1203.20;;;;;;5071430;28;20040;-63
2022/03/03 09:44:25;;;;;;;28.00;22.63;;;333.10;1203.20;;;;;;5071368;28;20027;-59
2022/03/03 09:46:52;;;;;;;20.50;15.88;;;333.00;1203.20;;;;;;5071507;28;20028;-58
2022/03/03 09:49:18;;;;;;;17.70;13.73;;;308.10;1203.20;;;;;;5071417;28;20032;-58
2022/03/03 09:51:45;;;;;;;27.48;21.30;;;307.70;1228.80;;;;;;5071259;28;20060;-59
2022/03/03 09:54:10;;;;;;;29.77;26.50;;;307.50;1228.80;;;;;;5071291;28;20033;-58
2022/03/03 09:56:39;;;;;;;21.77;13.80;;;307.70;1228.80;;;;;;5070076;28;20028;-59
2022/03/03 09:59:07;;;;;;;20.00;15.10;;;307.80;1228.80;;;;;;5071220;28;20035;-59
2022/03/03 10:01:33;;;;;;;79.43;59.15;;;307.60;1203.20;;;;;;5071236;28;20047;-58
2022/03/03 10:04:24;;;;;;;115.38;96.60;;;307.30;1228.80;;;;;;5071120;28;20028;-58
2022/03/03 10:06:50;;;;;;;28.85;21.98;;;282.30;1203.20;;;;;;5071227;28;20032;-58
2022/03/03 10:09:17;;;;;;;39.63;32.95;;;281.90;1228.80;;;;;;5070734;28;20033;-57
2022/03/03 10:11:49;;;;;;;106.82;94.53;;;282.30;1228.80;;;;;;5071072;28;20021;-59
2022/03/03 10:14:29;;;;;;;29.15;20.83;;;282.30;1228.80;;;;;;5070885;28;20488;-58
2022/03/03 10:16:54;;;;;;;19.15;15.05;;;282.50;1203.20;;;;;;5070998;28;20029;-58
2022/03/03 10:19:20;;;;;;;20.80;12.90;;;307.20;1254.40;;;;;;5071143;28;20450;-58
2022/03/03 10:21:46;;;;;;;18.83;13.00;;;307.50;1228.80;;;;;;5070877;28;20028;-58
2022/03/03 10:24:17;;;;;;;23.20;16.40;;;282.50;1228.80;;;;;;5070874;28;20021;-58
2022/03/03 10:26:44;;;;;;;16.35;13.00;;;282.20;1203.20;;;;;;5070461;28;20502;-60
2022/03/03 10:29:22;;;;;;;17.13;12.98;;;282.40;1228.80;;;;;;5070988;28;20097;-59
2022/03/03 10:31:49;;;;;;;17.17;12.10;;;282.50;1203.20;;;;;;5070484;28;20032;-57
2022/03/03 10:34:20;;;;;;;15.40;11.55;;;282.30;1203.20;;;;;;5070511;28;20055;-58
2022/03/03 10:36:59;;;;;;;35.47;22.60;;;282.10;1177.60;;;;;;5070423;28;20036;-60
2022/03/03 10:39:26;;;;;;;20.77;13.00;;;282.20;1228.80;;;;;;5070457;28;20540;-61
2022/03/03 10:41:56;;;;;;;14.55;11.57;;;282.00;1203.20;;;;;;5070554;28;20028;-58
2022/03/03 10:44:28;;;;;;;18.70;13.23;;;281.90;1228.80;;;;;;5070606;28;20040;-59
2022/03/03 10:47:12;;;;;;;18.40;11.93;;;281.70;1254.40;;;;;;5070255;28;20040;-59
2022/03/03 10:49:40;;;;;;;23.15;16.20;;;256.90;1280.00;;;;;;5070363;28;20447;-60
2022/03/03 10:52:24;;;;;;;40.65;26.90;;;281.70;1254.40;;;;;;5070243;28;20028;-60
2022/03/03 10:54:52;;;;;;;;;;;281.70;1254.40;;;;;;5070657;28;20021;-60
2022/03/03 10:57:49;;;;;;;18.30;12.30;;;281.70;1228.80;;;;;;5070078;28;19913;-60
2022/03/03 11:00:20;;;;;;;23.85;17.48;;;256.90;1254.40;;;;;;5070022;28;20056;-60
2022/03/03 11:02:54;;;;;;;43.35;28.15;;;256.90;1254.40;;;;;;5069821;28;20103;-60
2022/03/03 11:05:22;;;;;;;24.25;15.70;;;281.70;1305.60;;;;;;5069817;28;20027;-59
2022/03/03 11:07:49;;;;;;;21.48;16.80;;;281.60;1280.00;;;;;;5069659;28;20055;-59
2022/03/03 11:10:22;;;;;;;24.83;20.30;;;256.80;1280.00;;;;;;5069922;28;20020;-61
2022/03/03 11:12:49;;;;;;;18.30;12.02;;;256.60;1254.40;;;;;;5069915;28;20029;-60
2022/03/03 11:15:20;;;;;;;32.10;20.65;;;256.50;1254.40;;;;;;5070228;28;20025;-61
2022/03/03 11:17:47;;;;;;;61.83;44.08;;;256.90;1254.40;;;;;;5070073;28;20028;-59
2022/03/03 11:20:16;;;;;;;23.02;15.35;;;256.80;1254.40;;;;;;5070075;28;20027;-58
2022/03/03 11:22:45;;;;;;;21.60;16.40;;;256.70;1254.40;;;;;;5069846;28;20375;-58
2022/03/03 11:25:18;;;;;;;18.80;13.98;;;256.60;1254.40;;;;;;5070169;28;20021;-58
2022/03/03 11:27:45;;;;;;;16.00;11.97;;;256.70;1254.40;;;;;;5069664;28;20052;-58
2022/03/03 11:30:17;;;;;;;16.73;13.32;;;256.50;1305.60;;;;;;5069960;28;20770;-58
2022/03/03 11:32:44;;;;;;;20.48;12.30;;;256.80;1280.00;;;;;;5070127;28;20031;-58
2022/03/03 11:35:12;;;;;;;21.05;14.25;;;256.90;1254.40;;;;;;5069928;28;20024;-58
2022/03/03 11:37:40;;;;;;;24.13;17.67;;;256.90;1254.40;;;;;;5069740;28;20050;-58
2022/03/03 11:40:06;;;;;;;17.17;11.88;;;281.60;1280.00;;;;;;5069475;28;20025;-58
2022/03/03 11:42:53;;;;;;;21.02;13.73;;;256.80;1254.40;;;;;;5069970;28;20032;-58
2022/03/03 11:45:49;;;;;;;23.50;15.45;;;256.50;1280.00;;;;;;5069680;28;20025;-58
2022/03/03 11:48:15;;;;;;;21.40;14.95;;;256.80;1254.40;;;;;;5068448;28;20037;-59
2022/03/03 11:50:43;;;;;;;18.90;13.43;;;281.70;1280.00;;;;;;5069773;28;20078;-58
2022/03/03 11:53:08;;;;;;;29.25;23.77;;;281.60;1280.00;;;;;;5069767;28;20033;-57
2022/03/03 11:55:44;;;;;;;26.83;21.15;;;281.70;1280.00;;;;;;5069639;28;20562;-58
2022/03/03 11:58:26;;;;;;;20.60;13.50;;;281.80;1280.00;;;;;;5069597;28;20024;-60
2022/03/03 12:00:59;;;;;;;21.88;14.82;;;281.60;1280.00;;;;;;5069787;28;20428;-60
2022/03/03 12:03:25;;;;;;;22.05;13.88;;;281.90;1280.00;;;;;;5069584;28;20471;-58
2022/03/03 12:06:14;;;;;;;20.58;13.10;;;281.90;1254.40;;;;;;5069759;28;20031;-58
2022/03/03 12:08:41;;;;;;;19.10;13.65;;;281.60;1228.80;;;;;;5069706;28;20032;-58
2022/03/03 12:11:11;;;;;;;16.55;12.07;;;256.90;1228.80;;;;;;5069377;28;20029;-58